»·PEaware :: UAL717 KABQ-KSNA

UAL717 :: KABQ-KSNA

FLIGHT INFORMATION

Flight Status: Arrived
Operator:
United Airlines
More flights by this operator :: More flights under this callsign
Pilot: Ty S. (2873)
Aircraft: BOEING 757-300
(B753)
More flights by this aircraft type
Origin: KABQ Albuquerque Intl Sunport
United States
Destination: KSNA John Wayne-Orange Co
United States
More flights between these airports :: More routes between these airports
Route: +ADYOS3 ZUN J6 DRK HIMDU DSNEE3
File this flight plan on PilotEdge
Remarks: PBN / A1B3B4B5C4D4O4 DOF / 180406 REG / N533SB EET / KZLA0058 OPR / UAL PER / D RMK / TCAS SIMBRIEF
Altitude:
(Current/Filed)
34,000ft
Speed:
(Current/Filed)
450kts
Departed: 06-Apr-18 03:58 PM
Arrived: 06-Apr-18 05:35 PM
Distance/Time
Traveled:
563nm/1:37
Distance/Time
To Go:
Arrived

Flight Plot

Page will automatically refresh every two minutes.

Flight plan parsing failed; only flown route is shown


Map Options




Map Legend


Flown Route
Filed Route
Departure Airport
Arrival Airport
Navaid (VOR, NDB)
Fix

Horizontal Profiles

Position Reports

Time Latitude Longitude Heading Altitude Ground
Speed
06-Apr-18 15:03 35.047081 -106.618866 72 5366ft 0kts
06-Apr-18 15:04 35.047081 -106.618866 72 5366ft 0kts
06-Apr-18 15:05 35.047081 -106.618866 72 5366ft 0kts
06-Apr-18 15:06 35.047081 -106.618866 72 5366ft 0kts
06-Apr-18 15:07 35.047081 -106.618866 72 5366ft 0kts
06-Apr-18 15:08 35.047081 -106.618866 72 5366ft 0kts
06-Apr-18 15:09 35.047081 -106.618866 72 5366ft 0kts
06-Apr-18 15:10 35.047081 -106.618866 72 5366ft 0kts
06-Apr-18 15:11 35.047081 -106.618866 72 5366ft 0kts
06-Apr-18 15:12 35.047081 -106.618866 72 5366ft 0kts
06-Apr-18 15:13 35.047081 -106.618866 72 5366ft 0kts
06-Apr-18 15:14 35.047081 -106.618866 72 5366ft 0kts
06-Apr-18 15:15 35.047081 -106.618866 72 5366ft 0kts
06-Apr-18 15:16 35.047081 -106.618866 72 5366ft 0kts
06-Apr-18 15:17 35.047081 -106.618866 72 5366ft 0kts
06-Apr-18 15:18 35.047081 -106.618866 72 5366ft 0kts
06-Apr-18 15:19 35.047081 -106.618866 72 5366ft 0kts
06-Apr-18 15:20 35.047081 -106.618866 72 5366ft 0kts
06-Apr-18 15:21 35.047081 -106.618866 72 5366ft 0kts
06-Apr-18 15:22 35.047081 -106.618866 72 5366ft 0kts
06-Apr-18 15:23 35.047081 -106.618866 72 5366ft 0kts
06-Apr-18 15:24 35.047081 -106.618866 72 5366ft 0kts
06-Apr-18 15:25 35.047081 -106.618866 72 5366ft 0kts
06-Apr-18 15:26 35.047081 -106.618866 72 5366ft 0kts
06-Apr-18 15:27 35.047081 -106.618866 72 5366ft 0kts
06-Apr-18 15:28 35.047081 -106.618866 72 5366ft 0kts
06-Apr-18 15:29 35.047081 -106.618866 72 5366ft 0kts
06-Apr-18 15:30 35.047081 -106.618866 72 5366ft 0kts
06-Apr-18 15:31 35.047081 -106.618866 72 5365ft 0kts
06-Apr-18 15:32 35.047081 -106.618866 72 5365ft 0kts
06-Apr-18 15:33 35.047081 -106.618866 72 5365ft 0kts
06-Apr-18 15:34 35.047081 -106.618866 72 5365ft 0kts
06-Apr-18 15:35 35.047081 -106.618866 72 5365ft 0kts
06-Apr-18 15:36 35.047081 -106.618866 72 5365ft 0kts
06-Apr-18 15:37 35.047081 -106.618866 72 5365ft 0kts
06-Apr-18 15:38 35.047081 -106.618866 72 5365ft 0kts
06-Apr-18 15:39 35.047081 -106.618866 72 5365ft 0kts
06-Apr-18 15:40 35.047081 -106.618866 72 5365ft 0kts
06-Apr-18 15:41 35.047081 -106.618866 72 5365ft 0kts
06-Apr-18 15:42 35.047081 -106.618866 72 5365ft 0kts
06-Apr-18 15:43 35.047081 -106.618866 72 5365ft 0kts
06-Apr-18 15:44 35.046963 -106.619312 72 5365ft 2kts
06-Apr-18 15:45 35.047298 -106.619574 181 5365ft 0kts
06-Apr-18 15:46 35.047297 -106.619574 181 5365ft 0kts
06-Apr-18 15:47 35.047297 -106.619574 181 5365ft 0kts
06-Apr-18 15:48 35.047295 -106.619574 181 5365ft 0kts
06-Apr-18 15:49 35.046342 -106.619605 180 5365ft 5kts
06-Apr-18 15:50 35.045565 -106.617893 91 5365ft 8kts
06-Apr-18 15:51 35.045558 -106.614585 90 5365ft 11kts
06-Apr-18 15:52 35.043046 -106.613787 179 5365ft 7kts
06-Apr-18 15:53 35.042433 -106.611492 89 5365ft 13kts
06-Apr-18 15:54 35.042417 -106.608446 90 5365ft 3kts
06-Apr-18 15:55 35.041575 -106.607288 221 5365ft 0kts
06-Apr-18 15:56 35.041575 -106.607288 221 5365ft 0kts
06-Apr-18 15:57 35.029352 -106.622068 224 5366ft 126kts
06-Apr-18 15:58 35.001882 -106.666469 274 6103ft 196kts
06-Apr-18 15:59 35.015257 -106.747966 281 7819ft 266kts
06-Apr-18 16:00 35.031452 -106.837662 282 10407ft 297kts
06-Apr-18 16:01 35.046714 -106.945111 268 13043ft 331kts
06-Apr-18 16:02 35.043776 -107.057371 269 16208ft 336kts
06-Apr-18 16:03 35.040406 -107.172307 270 18925ft 345kts
06-Apr-18 16:04 35.036790 -107.290587 271 20845ft 349kts
06-Apr-18 16:05 35.033081 -107.410788 271 23007ft 360kts
06-Apr-18 16:06 35.029138 -107.534313 272 25026ft 369kts
06-Apr-18 16:07 35.025009 -107.659681 272 26779ft 379kts
06-Apr-18 16:08 35.020609 -107.788956 273 28460ft 387kts
06-Apr-18 16:09 35.015958 -107.921548 273 29947ft 397kts
06-Apr-18 16:10 35.011213 -108.052815 274 31241ft 407kts
06-Apr-18 16:11 35.006106 -108.189139 275 32988ft 402kts
06-Apr-18 16:12 35.000898 -108.324877 275 33986ft 399kts
06-Apr-18 16:13 34.995629 -108.458333 275 33978ft 392kts
06-Apr-18 16:14 34.990256 -108.590911 275 33976ft 391kts
06-Apr-18 16:15 34.984866 -108.720217 275 33984ft 393kts
06-Apr-18 16:16 34.979190 -108.852894 274 33979ft 394kts
06-Apr-18 16:17 34.973336 -108.986469 274 33973ft 395kts
06-Apr-18 16:18 34.967325 -109.120292 274 33965ft 397kts
06-Apr-18 16:19 34.959181 -109.254837 273 33959ft 399kts
06-Apr-18 16:20 34.950190 -109.389560 273 33958ft 400kts
06-Apr-18 16:21 34.941041 -109.524576 273 33957ft 401kts
06-Apr-18 16:22 34.931827 -109.658350 272 33958ft 402kts
06-Apr-18 16:23 34.922342 -109.793728 272 33991ft 402kts
06-Apr-18 16:24 34.912685 -109.929504 272 34032ft 403kts
06-Apr-18 16:25 34.902872 -110.065313 272 33989ft 404kts
06-Apr-18 16:26 34.896320 -110.154844 272 33938ft 405kts
06-Apr-18 16:27 34.886223 -110.290987 272 33927ft 405kts
06-Apr-18 16:28 34.875948 -110.427481 272 33925ft 405kts
06-Apr-18 16:29 34.865514 -110.563977 272 33925ft 405kts
06-Apr-18 16:30 34.856716 -110.677477 272 33933ft 406kts
06-Apr-18 16:31 34.846001 -110.813928 272 33932ft 405kts
06-Apr-18 16:32 34.835138 -110.950355 271 33932ft 406kts
06-Apr-18 16:33 34.824075 -111.087279 271 33931ft 408kts
06-Apr-18 16:34 34.812777 -111.224948 271 33960ft 408kts
06-Apr-18 16:35 34.801414 -111.361614 271 34002ft 408kts
06-Apr-18 16:36 34.789856 -111.498780 271 33983ft 408kts
06-Apr-18 16:37 34.778123 -111.636145 271 33963ft 408kts
06-Apr-18 16:38 34.766382 -111.771832 270 33971ft 409kts
06-Apr-18 16:39 34.754364 -111.908878 270 33970ft 409kts
06-Apr-18 16:40 34.742136 -112.046495 270 33969ft 409kts
06-Apr-18 16:41 34.730972 -112.170642 270 33976ft 409kts
06-Apr-18 16:42 34.718459 -112.308089 270 33998ft 409kts
06-Apr-18 16:43 34.705842 -112.444965 270 34002ft 408kts
06-Apr-18 16:44 34.683289 -112.581153 264 34001ft 414kts
06-Apr-18 16:45 34.657906 -112.714894 263 34009ft 415kts
06-Apr-18 16:46 34.631844 -112.850772 263 34008ft 414kts
06-Apr-18 16:47 34.605592 -112.986690 263 34008ft 413kts
06-Apr-18 16:48 34.583589 -113.099912 263 34004ft 413kts
06-Apr-18 16:49 34.557137 -113.235240 263 34005ft 413kts
06-Apr-18 16:50 34.530566 -113.370350 263 33969ft 413kts
06-Apr-18 16:51 34.503761 -113.505806 263 33881ft 414kts
06-Apr-18 16:52 34.476792 -113.641241 263 33812ft 414kts
06-Apr-18 16:53 34.450457 -113.772684 262 33784ft 414kts
06-Apr-18 16:54 34.423096 -113.908432 262 33782ft 414kts
06-Apr-18 16:55 34.395350 -114.043371 261 33781ft 415kts
06-Apr-18 16:56 34.365847 -114.178480 261 33780ft 415kts
06-Apr-18 16:57 34.338016 -114.305354 261 33779ft 415kts
06-Apr-18 16:58 34.308691 -114.439872 262 33778ft 415kts
06-Apr-18 16:59 34.279133 -114.574737 262 33777ft 415kts
06-Apr-18 17:00 34.252549 -114.695253 261 33786ft 416kts
06-Apr-18 17:01 34.223306 -114.823293 261 33786ft 416kts
06-Apr-18 17:02 34.192498 -114.957589 261 33789ft 416kts
06-Apr-18 17:03 34.162520 -115.092405 260 33791ft 416kts
06-Apr-18 17:04 34.132416 -115.226993 260 33797ft 416kts
06-Apr-18 17:05 34.102108 -115.361684 260 33863ft 416kts
06-Apr-18 17:06 34.071703 -115.496104 260 33905ft 416kts
06-Apr-18 17:07 34.046074 -115.626459 266 33158ft 396kts
06-Apr-18 17:08 34.032222 -115.727875 265 32164ft 400kts
06-Apr-18 17:09 34.017608 -115.832305 265 30965ft 400kts
06-Apr-18 17:10 33.999284 -115.962061 264 29280ft 406kts
06-Apr-18 17:11 33.980450 -116.093920 264 27360ft 394kts
06-Apr-18 17:12 33.962942 -116.217312 265 25578ft 385kts
06-Apr-18 17:13 33.947920 -116.338991 265 23825ft 376kts
06-Apr-18 17:14 33.932815 -116.461425 265 22003ft 367kts
06-Apr-18 17:15 33.917710 -116.581790 265 20071ft 364kts
06-Apr-18 17:16 33.903112 -116.694708 264 18122ft 353kts
06-Apr-18 17:17 33.891382 -116.790135 265 16238ft 342kts
06-Apr-18 17:18 33.880185 -116.893154 265 14569ft 332kts
06-Apr-18 17:19 33.868305 -117.001050 266 13057ft 320kts
06-Apr-18 17:20 33.856823 -117.104524 267 11550ft 309kts
06-Apr-18 17:21 33.845587 -117.205251 266 10101ft 304kts
06-Apr-18 17:22 33.834352 -117.305008 266 8653ft 298kts
06-Apr-18 17:23 33.824386 -117.392184 267 8333ft 231kts
06-Apr-18 17:24 33.815963 -117.469462 266 6988ft 237kts
06-Apr-18 17:25 33.808601 -117.543860 266 6006ft 227kts
06-Apr-18 17:26 33.812092 -117.615929 282 5058ft 210kts
06-Apr-18 17:27 33.819592 -117.660701 281 4964ft 170kts
06-Apr-18 17:28 33.829906 -117.717037 281 4360ft 176kts
06-Apr-18 17:29 33.827641 -117.772092 215 3147ft 179kts
06-Apr-18 17:30 33.784086 -117.799977 209 2335ft 180kts
06-Apr-18 17:31 33.746630 -117.823800 209 1500ft 140kts
06-Apr-18 17:32 33.712960 -117.845103 210 742ft 141kts
06-Apr-18 17:33 33.680168 -117.865985 209 91ft 137kts
06-Apr-18 17:34 33.669397 -117.870673 44 67ft 11kts
06-Apr-18 17:35 33.672649 -117.867757 36 67ft 15kts
06-Apr-18 17:36 33.675615 -117.865524 28 67ft 8kts
06-Apr-18 17:37 33.678243 -117.863866 28 67ft 11kts
06-Apr-18 17:38 33.681838 -117.861595 28 68ft 15kts
06-Apr-18 17:39 33.682675 -117.860207 89 67ft 0kts
06-Apr-18 17:40 33.682675 -117.860207 89 67ft 0kts
06-Apr-18 17:41 33.682675 -117.860207 89 67ft 0kts
06-Apr-18 17:42 33.682675 -117.860207 89 67ft 0kts
06-Apr-18 17:43 33.682675 -117.860207 89 67ft 0kts
06-Apr-18 17:44 33.682675 -117.860207 89 67ft 0kts
06-Apr-18 17:45 33.682675 -117.860207 89 67ft 0kts
06-Apr-18 17:46 33.682675 -117.860207 89 67ft 0kts
06-Apr-18 17:47 33.682675 -117.860207 89 67ft 0kts
06-Apr-18 17:48 33.682675 -117.860207 89 67ft 0kts

Navigation Log

Ident Type
Flight plan parsing failed, navigation log unavailable